createdAt,value
2019-03-10T00:01:09.912Z,5.20
2019-03-10T00:03:55.883Z,3.47
2019-03-10T00:06:42.383Z,3.33
2019-03-10T00:09:29.132Z,7.85
2019-03-10T00:12:15.531Z,5.75
2019-03-10T00:15:01.824Z,5.33
2019-03-10T00:17:49.299Z,4.20
2019-03-10T00:20:35.653Z,3.30
2019-03-10T00:23:21.899Z,5.08
2019-03-10T00:26:08.068Z,6.33
2019-03-10T00:28:54.371Z,5.00
2019-03-10T00:31:40.837Z,4.92
2019-03-10T00:34:27.227Z,5.80
2019-03-10T00:37:14.595Z,5.92
2019-03-10T00:40:42.035Z,3.50
2019-03-10T00:44:05.913Z,4.53
2019-03-10T00:47:52.259Z,6.40
2019-03-10T00:51:15.208Z,4.08
2019-03-10T00:54:01.043Z,5.62
2019-03-10T00:56:47.027Z,3.90
2019-03-10T00:59:33.284Z,5.85
2019-03-10T01:02:19.361Z,3.52
2019-03-10T01:05:05.723Z,5.67
2019-03-10T01:07:52.125Z,5.08
2019-03-10T01:10:38.412Z,3.27
2019-03-10T01:13:25.187Z,4.90
2019-03-10T01:16:11.841Z,3.95
2019-03-10T01:18:58.740Z,3.77
2019-03-10T01:21:45.755Z,5.40
2019-03-10T01:24:32.081Z,4.62
2019-03-10T01:27:18.552Z,4.92
2019-03-10T01:30:08.388Z,4.08
2019-03-10T01:33:31.368Z,4.03
2019-03-10T01:36:16.471Z,4.97
2019-03-10T01:39:05.831Z,3.92
2019-03-10T01:41:53.859Z,4.83
2019-03-10T01:44:40.135Z,3.10
2019-03-10T01:47:25.972Z,3.40
2019-03-10T01:50:12.991Z,3.45
2019-03-10T01:52:59.509Z,4.60
2019-03-10T01:55:45.823Z,5.08
2019-03-10T01:58:32.430Z,3.33
2019-03-10T02:01:18.247Z,4.08
2019-03-10T02:04:04.912Z,3.42
2019-03-10T02:06:52.251Z,4.28
2019-03-10T02:09:38.839Z,3.50
2019-03-10T02:12:25.112Z,2.75
2019-03-10T02:15:13.425Z,4.15
2019-03-10T02:17:59.268Z,3.47
2019-03-10T02:20:45.921Z,2.98
2019-03-10T02:23:32.255Z,2.42
2019-03-10T02:26:18.676Z,3.37
2019-03-10T02:29:04.963Z,3.83
2019-03-10T02:31:51.352Z,4.75
2019-03-10T02:34:37.593Z,4.35
2019-03-10T02:37:23.636Z,3.00
2019-03-10T02:40:09.883Z,3.35
2019-03-10T02:42:56.544Z,2.72
2019-03-10T02:45:42.946Z,2.15
2019-03-10T02:48:29.413Z,2.08
2019-03-10T02:51:15.640Z,2.40
2019-03-10T02:54:02.314Z,2.12
2019-03-10T02:56:48.465Z,3.37
2019-03-10T02:59:34.751Z,3.77
2019-03-10T03:02:21.216Z,2.40
2019-03-10T03:05:08.357Z,2.95
2019-03-10T03:07:54.495Z,3.08
2019-03-10T03:10:41.648Z,2.80
2019-03-10T03:13:27.966Z,2.27
2019-03-10T03:16:14.392Z,2.12
2019-03-10T03:19:00.923Z,2.15
2019-03-10T03:21:47.245Z,2.65
2019-03-10T03:24:33.617Z,1.40
2019-03-10T03:27:20.392Z,2.58
2019-03-10T03:30:07.840Z,2.33
2019-03-10T03:32:54.084Z,1.47
2019-03-10T03:36:05.413Z,1.77
2019-03-10T03:38:55.953Z,2.98
2019-03-10T03:41:42.335Z,2.67
2019-03-10T03:44:28.570Z,2.47
2019-03-10T03:47:14.859Z,3.02
2019-03-10T03:50:01.485Z,2.45
2019-03-10T03:52:47.660Z,0.93
2019-03-10T03:55:34.324Z,1.80
2019-03-10T03:58:21.859Z,1.77
2019-03-10T04:01:17.389Z,2.98
2019-03-10T04:04:03.826Z,1.82
2019-03-10T04:06:49.825Z,2.17
2019-03-10T04:09:36.210Z,2.55
2019-03-10T04:12:24.077Z,2.40
2019-03-10T04:15:10.729Z,3.10
2019-03-10T04:17:57.052Z,1.07
2019-03-10T04:20:43.507Z,1.98
2019-03-10T04:23:30.093Z,2.67
2019-03-10T04:26:16.196Z,1.60
2019-03-10T04:29:02.237Z,2.95
2019-03-10T04:31:48.472Z,2.90
2019-03-10T04:34:34.396Z,1.98
2019-03-10T04:37:20.569Z,1.90
2019-03-10T04:40:07.279Z,2.05
2019-03-10T04:42:53.453Z,1.75
2019-03-10T04:45:39.712Z,2.83
2019-03-10T04:48:25.926Z,1.67
2019-03-10T04:51:12.697Z,2.08
2019-03-10T04:53:58.959Z,1.95
2019-03-10T04:56:58.942Z,2.02
2019-03-10T04:59:45.057Z,2.67
2019-03-10T05:02:31.432Z,1.20
2019-03-10T05:05:17.344Z,2.42
2019-03-10T05:08:03.703Z,1.32
2019-03-10T05:10:49.975Z,2.00
2019-03-10T05:13:36.550Z,1.37
2019-03-10T05:16:22.905Z,1.77
2019-03-10T05:19:09.423Z,1.55
2019-03-10T05:21:56.959Z,0.82
2019-03-10T05:24:43.651Z,1.90
2019-03-10T05:27:29.428Z,2.22
2019-03-10T05:30:15.427Z,2.00
2019-03-10T05:33:01.584Z,2.12
2019-03-10T05:35:48.135Z,2.80
2019-03-10T05:38:34.399Z,2.25
2019-03-10T05:41:20.259Z,2.58
2019-03-10T05:44:06.165Z,2.98
2019-03-10T05:46:52.503Z,3.27
2019-03-10T05:49:38.207Z,3.77
2019-03-10T05:52:24.539Z,3.70
2019-03-10T05:55:10.347Z,2.20
2019-03-10T05:57:57.108Z,3.33
2019-03-10T06:00:43.693Z,1.98
2019-03-10T06:03:29.958Z,5.08
2019-03-10T06:06:16.299Z,4.20
2019-03-10T06:09:04.916Z,2.12
2019-03-10T06:11:51.407Z,1.17
2019-03-10T06:14:38.055Z,3.02
2019-03-10T06:17:24.413Z,1.32
2019-03-10T06:20:10.991Z,2.62
2019-03-10T06:22:57.456Z,1.62
2019-03-10T06:25:43.682Z,1.57
2019-03-10T06:28:29.879Z,1.55
2019-03-10T06:31:15.884Z,2.67
2019-03-10T06:34:02.244Z,3.47
2019-03-10T06:36:48.792Z,1.80
2019-03-10T06:39:35.096Z,2.22
2019-03-10T06:42:21.803Z,1.42
2019-03-10T06:45:08.304Z,4.12
2019-03-10T06:47:54.431Z,2.20
2019-03-10T06:50:40.236Z,1.65
2019-03-10T06:53:26.895Z,4.22
2019-03-10T06:56:13.381Z,3.15
2019-03-10T06:58:59.909Z,2.37
2019-03-10T07:01:46.239Z,2.58
2019-03-10T07:04:32.235Z,2.65
2019-03-10T07:07:18.451Z,4.60
2019-03-10T07:10:05.687Z,2.98
2019-03-10T07:12:51.609Z,3.85
2019-03-10T07:15:37.603Z,2.33
2019-03-10T07:18:24.183Z,3.83
2019-03-10T07:21:10.152Z,3.00
2019-03-10T07:23:56.416Z,2.62
2019-03-10T07:26:43.117Z,2.90
2019-03-10T07:29:32.919Z,3.15
2019-03-10T07:32:27.043Z,2.65
2019-03-10T07:35:31.285Z,2.47
2019-03-10T07:38:32.434Z,4.58
2019-03-10T07:41:43.716Z,2.30
2019-03-10T07:44:37.848Z,5.12
2019-03-10T07:47:34.159Z,4.62
2019-03-10T07:50:34.208Z,3.12
2019-03-10T07:53:42.828Z,4.25
2019-03-10T07:56:48.335Z,2.30
2019-03-10T07:59:57.133Z,3.08
2019-03-10T08:02:53.780Z,2.95
2019-03-10T08:06:02.624Z,3.05
2019-03-10T08:09:20.597Z,3.70
2019-03-10T08:12:22.305Z,2.67
2019-03-10T08:15:21.700Z,5.15
2019-03-10T08:18:19.884Z,2.27
2019-03-10T08:21:25.000Z,3.17
2019-03-10T08:24:37.036Z,3.70
2019-03-10T08:27:45.764Z,4.12
2019-03-10T08:30:57.520Z,2.95
2019-03-10T08:33:52.724Z,2.95
2019-03-10T08:36:45.500Z,3.50
2019-03-10T08:39:40.903Z,4.15
2019-03-10T08:42:40.191Z,3.40
2019-03-10T08:45:53.551Z,3.02
2019-03-10T08:48:59.529Z,3.70
2019-03-10T08:52:17.528Z,5.10
2019-03-10T08:55:36.043Z,2.92
2019-03-10T08:58:35.705Z,4.90
2019-03-10T09:01:36.979Z,2.35
2019-03-10T09:04:46.773Z,4.08
2019-03-10T09:07:39.163Z,3.22
2019-03-10T09:10:53.982Z,3.45
2019-03-10T09:13:54.563Z,2.50
2019-03-10T09:16:46.636Z,3.62
2019-03-10T09:19:48.479Z,3.83
2019-03-10T09:23:00.795Z,2.25
2019-03-10T09:25:54.996Z,3.10
2019-03-10T09:29:10.055Z,1.35
2019-03-10T09:32:13.671Z,2.30
2019-03-10T09:35:07.671Z,2.05
2019-03-10T09:37:59.640Z,1.90
2019-03-10T09:41:01.859Z,1.98
2019-03-10T09:44:16.905Z,2.60
2019-03-10T09:47:13.011Z,3.08
2019-03-10T09:50:15.607Z,0.80
2019-03-10T09:53:20.897Z,2.35
2019-03-10T09:56:29.452Z,3.30
2019-03-10T09:59:22.962Z,2.52
2019-03-10T10:02:21.959Z,3.00
2019-03-10T10:05:27.764Z,2.75
2019-03-10T10:08:45.420Z,5.40
2019-03-10T10:12:00.849Z,2.05
2019-03-10T10:15:11.899Z,2.80
2019-03-10T10:18:10.303Z,2.87
2019-03-10T10:21:21.296Z,2.37
2019-03-10T10:24:25.226Z,2.22
2019-03-10T10:27:20.227Z,1.35
2019-03-10T10:30:26.565Z,1.72
2019-03-10T10:33:32.356Z,1.67
2019-03-10T10:36:41.236Z,2.62
2019-03-10T10:39:52.508Z,1.67
2019-03-10T10:42:50.407Z,2.45
2019-03-10T10:45:50.449Z,1.85
2019-03-10T10:48:45.220Z,2.92
2019-03-10T10:51:43.416Z,2.62
2019-03-10T10:54:58.491Z,3.05
2019-03-10T10:58:06.204Z,2.50
2019-03-10T11:01:06.403Z,3.75
2019-03-10T11:04:14.981Z,2.35
2019-03-10T11:07:20.391Z,3.50
2019-03-10T11:10:16.003Z,2.75
2019-03-10T11:13:20.310Z,2.60
2019-03-10T11:16:21.979Z,2.40
2019-03-10T11:19:19.573Z,3.25
2019-03-10T11:22:21.413Z,2.05
2019-03-10T11:25:21.548Z,4.67
2019-03-10T11:28:22.284Z,3.45
2019-03-10T11:31:32.073Z,4.97
2019-03-10T11:34:40.511Z,2.62
2019-03-10T11:37:33.006Z,3.67
2019-03-10T11:40:40.719Z,4.60
2019-03-10T11:43:46.156Z,5.28
2019-03-10T11:46:38.779Z,2.22
2019-03-10T11:49:42.970Z,2.62
2019-03-10T11:52:48.795Z,4.47
2019-03-10T11:55:45.752Z,2.08
2019-03-10T11:58:39.693Z,2.42
2019-03-10T12:01:33.756Z,3.25
2019-03-10T12:04:42.111Z,1.70
2019-03-10T12:07:45.896Z,1.95
2019-03-10T12:10:32.075Z,1.32
2019-03-10T12:13:18.437Z,1.98
2019-03-10T12:16:04.402Z,0.80
2019-03-10T12:18:50.707Z,1.02
2019-03-10T12:21:36.865Z,2.85
2019-03-10T12:24:23.083Z,0.98
2019-03-10T12:27:09.271Z,2.12
2019-03-10T12:29:55.445Z,3.35
2019-03-10T12:32:41.593Z,2.72
2019-03-10T12:35:34.402Z,5.78
2019-03-10T12:38:15.500Z,3.37
2019-03-10T12:41:02.851Z,1.70
2019-03-10T12:43:49.069Z,2.92
2019-03-10T12:46:35.312Z,1.32
2019-03-10T12:49:21.405Z,2.00
2019-03-10T12:52:07.710Z,2.20
2019-03-10T12:54:54.024Z,1.85
2019-03-10T12:57:40.484Z,2.60
2019-03-10T13:00:26.741Z,1.67
2019-03-10T13:03:14.445Z,2.25
2019-03-10T13:06:00.596Z,2.55
2019-03-10T13:08:46.691Z,3.85
2019-03-10T13:11:32.472Z,3.40
2019-03-10T13:14:18.963Z,2.02
2019-03-10T13:17:05.184Z,1.25
2019-03-10T13:19:51.540Z,8.00
2019-03-10T13:22:38.103Z,10.75
2019-03-10T13:25:23.903Z,7.60
2019-03-10T13:28:10.393Z,17.65
2019-03-10T13:30:56.819Z,8.50
2019-03-10T13:33:43.124Z,8.83
2019-03-10T13:36:29.628Z,7.80
2019-03-10T13:39:16.095Z,7.80
2019-03-10T13:42:02.202Z,2.92
2019-03-10T13:44:48.211Z,5.72
2019-03-10T13:47:34.649Z,8.98
2019-03-10T13:50:21.917Z,9.33
2019-03-10T13:53:08.023Z,5.92
2019-03-10T13:55:54.335Z,4.08
2019-03-10T13:58:41.187Z,5.08
2019-03-10T14:01:27.649Z,3.35
2019-03-10T14:04:13.943Z,4.08
2019-03-10T14:06:59.769Z,3.00
2019-03-10T14:09:46.215Z,3.02
2019-03-10T14:12:31.963Z,4.37
2019-03-10T14:15:18.376Z,2.83
2019-03-10T14:18:04.560Z,4.58
2019-03-10T14:20:50.990Z,4.53
2019-03-10T14:23:37.279Z,3.02
2019-03-10T14:26:23.704Z,4.87
2019-03-10T14:29:10.004Z,2.30
2019-03-10T14:31:55.891Z,1.40
2019-03-10T14:34:42.764Z,4.05
2019-03-10T14:37:29.496Z,1.98
2019-03-10T14:40:15.999Z,1.70
2019-03-10T14:43:02.817Z,4.45
2019-03-10T14:45:48.796Z,2.27
2019-03-10T14:48:34.828Z,1.98
2019-03-10T14:51:21.454Z,1.82
2019-03-10T14:54:07.987Z,2.20
2019-03-10T14:56:53.992Z,1.35
2019-03-10T14:59:40.502Z,4.22
2019-03-10T15:02:27.193Z,1.42
2019-03-10T15:05:13.684Z,2.62
2019-03-10T15:07:59.959Z,4.17
2019-03-10T15:10:46.923Z,4.47
2019-03-10T15:13:33.124Z,1.75
2019-03-10T15:16:19.408Z,3.20
2019-03-10T15:19:05.688Z,1.82
2019-03-10T15:21:52.354Z,1.82
2019-03-10T15:24:38.486Z,2.40
2019-03-10T15:27:25.051Z,1.77
2019-03-10T15:30:14.162Z,1.55
2019-03-10T15:33:00.830Z,2.52
2019-03-10T15:35:47.200Z,3.83
2019-03-10T15:38:33.779Z,1.10
2019-03-10T15:41:19.824Z,3.87
2019-03-10T15:44:06.323Z,1.85
2019-03-10T15:46:52.740Z,6.75
2019-03-10T15:49:39.246Z,2.05
2019-03-10T15:52:25.632Z,2.92
2019-03-10T15:55:12.210Z,2.80
2019-03-10T15:57:58.481Z,1.30
2019-03-10T16:00:44.872Z,1.90
2019-03-10T16:03:31.143Z,2.87
2019-03-10T16:06:17.388Z,1.35
2019-03-10T16:09:04.665Z,1.70
2019-03-10T16:11:52.803Z,1.75
2019-03-10T16:14:39.080Z,1.70
2019-03-10T16:17:25.853Z,2.02
2019-03-10T16:20:12.815Z,1.65
2019-03-10T16:22:59.095Z,1.60
2019-03-10T16:25:44.988Z,3.47
2019-03-10T16:28:32.153Z,3.05
2019-03-10T16:31:18.328Z,1.42
2019-03-10T16:34:04.637Z,2.15
2019-03-10T16:36:51.012Z,1.70
2019-03-10T16:39:37.247Z,1.72
2019-03-10T16:42:23.197Z,2.17
2019-03-10T16:45:16.120Z,1.10
2019-03-10T16:48:02.049Z,2.90
2019-03-10T16:50:48.424Z,1.92
2019-03-10T16:53:34.357Z,1.67
2019-03-10T16:56:30.766Z,1.27
2019-03-10T16:59:17.087Z,2.60
2019-03-10T17:02:03.371Z,1.35
2019-03-10T17:04:49.701Z,1.35
2019-03-10T17:07:36.392Z,1.55
2019-03-10T17:10:22.713Z,1.62
2019-03-10T17:13:09.091Z,1.35
2019-03-10T17:15:55.527Z,1.77
2019-03-10T17:18:42.142Z,1.60
2019-03-10T17:21:28.067Z,1.45
2019-03-10T17:24:14.447Z,2.55
2019-03-10T17:27:00.925Z,1.50
2019-03-10T17:29:47.564Z,1.30
2019-03-10T17:32:33.839Z,1.55
2019-03-10T17:35:20.807Z,1.45
2019-03-10T17:38:06.923Z,2.02
2019-03-10T17:40:53.351Z,1.70
2019-03-10T17:43:39.641Z,1.85
2019-03-10T17:46:26.275Z,1.80
2019-03-10T17:49:12.515Z,1.75
2019-03-10T17:51:58.739Z,0.95
2019-03-10T17:54:45.148Z,1.85
2019-03-10T17:57:31.448Z,1.07
2019-03-10T18:00:19.503Z,1.25
2019-03-10T18:03:05.756Z,1.65
2019-03-10T18:05:51.990Z,1.00
2019-03-10T18:08:38.546Z,1.42
2019-03-10T18:11:25.043Z,1.67
2019-03-10T18:14:11.319Z,1.45
2019-03-10T18:16:57.589Z,1.70
2019-03-10T18:19:44.346Z,2.20
2019-03-10T18:22:30.542Z,2.05
2019-03-10T18:25:16.708Z,2.90
2019-03-10T18:28:06.022Z,2.17
2019-03-10T18:30:52.207Z,1.90
2019-03-10T18:33:38.458Z,2.02
2019-03-10T18:36:25.221Z,1.67
2019-03-10T18:39:11.439Z,1.65
2019-03-10T18:41:57.919Z,0.82
2019-03-10T18:44:44.233Z,2.10
2019-03-10T18:47:30.916Z,1.75
2019-03-10T18:50:17.239Z,1.72
2019-03-10T18:53:03.683Z,1.70
2019-03-10T18:55:50.081Z,1.27
2019-03-10T18:58:36.079Z,3.75
2019-03-10T19:01:22.562Z,2.58
2019-03-10T19:04:08.936Z,1.85
2019-03-10T19:06:54.752Z,2.47
2019-03-10T19:09:40.677Z,3.22
2019-03-10T19:12:26.907Z,3.58
2019-03-10T19:15:14.495Z,2.37
2019-03-10T19:18:00.459Z,2.10
2019-03-10T19:20:46.730Z,1.35
2019-03-10T19:23:33.192Z,2.25
2019-03-10T19:26:19.503Z,1.47
2019-03-10T19:29:05.671Z,2.15
2019-03-10T19:31:54.350Z,2.75
2019-03-10T19:34:40.381Z,1.70
2019-03-10T19:37:26.668Z,1.57
2019-03-10T19:40:13.734Z,4.15
2019-03-10T19:43:00.088Z,2.30
2019-03-10T19:45:46.397Z,1.35
2019-03-10T19:48:32.431Z,1.85
2019-03-10T19:51:18.731Z,2.25
2019-03-10T19:54:05.998Z,1.60
2019-03-10T19:56:52.388Z,1.90
2019-03-10T19:59:51.422Z,3.00
2019-03-10T20:02:37.778Z,1.85
2019-03-10T20:05:24.014Z,2.05
2019-03-10T20:08:10.348Z,2.22
2019-03-10T20:10:56.526Z,1.47
2019-03-10T20:13:42.807Z,1.50
2019-03-10T20:16:29.536Z,1.50
2019-03-10T20:19:17.049Z,1.40
2019-03-10T20:22:03.771Z,2.10
2019-03-10T20:24:50.110Z,1.30
2019-03-10T20:27:37.771Z,1.37
2019-03-10T20:30:23.519Z,2.83
2019-03-10T20:33:09.786Z,1.20
2019-03-10T20:35:56.220Z,1.57
2019-03-10T20:38:42.611Z,2.30
2019-03-10T20:41:28.989Z,1.30
2019-03-10T20:44:16.043Z,1.85
2019-03-10T20:47:02.331Z,2.05
2019-03-10T20:49:48.955Z,2.92
2019-03-10T20:52:35.132Z,1.37
2019-03-10T20:55:21.411Z,2.90
2019-03-10T20:58:07.867Z,4.20
2019-03-10T21:00:54.545Z,2.40
2019-03-10T21:03:40.768Z,2.17
2019-03-10T21:06:27.584Z,2.83
2019-03-10T21:09:13.789Z,1.50
2019-03-10T21:12:00.068Z,2.85
2019-03-10T21:14:46.532Z,0.88
2019-03-10T21:17:32.947Z,1.15
2019-03-10T21:20:19.214Z,2.50
2019-03-10T21:23:05.660Z,1.40
2019-03-10T21:25:51.917Z,0.82
2019-03-10T21:28:38.340Z,1.02
2019-03-10T21:31:24.743Z,1.47
2019-03-10T21:34:11.070Z,1.35
2019-03-10T21:36:57.360Z,1.32
2019-03-10T21:39:44.083Z,0.85
2019-03-10T21:42:32.267Z,1.07
2019-03-10T21:45:18.264Z,1.10
2019-03-10T21:48:04.815Z,0.72
2019-03-10T21:50:51.156Z,0.53
2019-03-10T21:53:37.506Z,1.15
2019-03-10T21:56:24.244Z,0.80
2019-03-10T21:59:10.620Z,2.37
2019-03-10T22:01:56.524Z,1.32
2019-03-10T22:04:43.011Z,0.93
2019-03-10T22:07:29.805Z,1.07
2019-03-10T22:10:26.393Z,0.70
2019-03-10T22:13:05.697Z,1.20
2019-03-10T22:15:51.907Z,0.90
2019-03-10T22:18:38.831Z,0.90
2019-03-10T22:21:25.309Z,0.85
2019-03-10T22:24:11.610Z,0.90
2019-03-10T22:26:57.953Z,1.32
2019-03-10T22:29:44.491Z,1.32
2019-03-10T22:32:30.692Z,0.70
2019-03-10T22:35:17.246Z,0.45
2019-03-10T22:38:04.638Z,1.45
2019-03-10T22:40:51.187Z,0.33
2019-03-10T22:43:37.468Z,1.00
2019-03-10T22:46:24.188Z,0.93
2019-03-10T22:49:10.440Z,1.75
2019-03-10T22:51:56.607Z,1.17
2019-03-10T22:54:43.066Z,0.90
2019-03-10T22:57:29.307Z,0.62
2019-03-10T23:00:17.332Z,1.17
2019-03-10T23:03:05.680Z,0.82
2019-03-10T23:05:51.909Z,0.93
2019-03-10T23:08:38.712Z,1.20
2019-03-10T23:11:25.125Z,1.37
2019-03-10T23:14:12.523Z,0.40
2019-03-10T23:16:58.762Z,0.65
2019-03-10T23:19:45.227Z,0.40
2019-03-10T23:22:31.507Z,0.70
2019-03-10T23:25:17.879Z,0.68
2019-03-10T23:28:04.143Z,1.95
2019-03-10T23:30:50.759Z,0.65
2019-03-10T23:33:36.640Z,0.40
2019-03-10T23:36:23.231Z,1.32
2019-03-10T23:39:09.711Z,1.00
2019-03-10T23:41:57.971Z,1.05
2019-03-10T23:44:43.951Z,0.50
2019-03-10T23:47:30.675Z,0.40
2019-03-10T23:50:17.950Z,1.27
2019-03-10T23:53:04.403Z,0.55
2019-03-10T23:55:50.602Z,0.53
2019-03-10T23:58:37.308Z,0.82
